Terminal Aerodrome Forecast
Issued by NWS Sterling, VA

Current Version | Previous Version | Graphics & Text | Print | Product List | Glossary On
Versions: 1 2 3 4 5 6 7 8 9 10 11 12 13 14 15 16 17 18 19 20 21 22 23
290
FTUS41 KLWX 201730
TAFIAD
TAF
KIAD 201730Z 2018/2124 32004KT P6SM BKN110
     FM202100 17004KT P6SM BKN080
     FM210500 VRB03KT P6SM -SHRA OVC060
     FM210900 00000KT P6SM OVC030
     FM211200 VRB03KT P6SM OVC035
     FM211500 34006KT P6SM BKN030
     FM212100 33009KT P6SM BKN035=

USA.gov is the U.S. government's official web portal to all federal, state and local government web resources and services.